Time;durP1;ratioP1;P1;durP2;ratioP2;P2;SDS_P1;SDS_P2;PMS_P1;PMS_P2;Temp;Humidity;BMP_temperature;BMP_pressure;BME280_temperature;BME280_humidity;BME280_pressure;Samples;Min_cycle;Max_cycle;Signal;HPM_P1;HPM_P2
2023/05/14 00:01:34;;;;;;;6.57;6.00;;;11.00;1.00;;;;;;6123180;23;20578;-90
2023/05/14 00:04:22;;;;;;;7.63;6.00;;;11.30;1.00;;;;;;6123750;23;20612;-91
2023/05/14 00:07:03;;;;;;;6.37;5.80;;;11.90;1.00;;;;;;6123581;23;20155;-90
2023/05/14 00:09:51;;;;;;;6.77;6.23;;;10.30;1.00;;;;;;6122032;23;20214;-90
2023/05/14 00:12:30;;;;;;;6.30;5.80;;;11.00;1.00;;;;;;6123266;23;20317;-90
2023/05/14 00:15:04;;;;;;;6.53;5.80;;;10.60;1.00;;;;;;6099556;23;20160;-89
2023/05/14 00:17:36;;;;;;;6.80;6.20;;;11.00;1.00;;;;;;6123376;23;20166;-90
2023/05/14 00:23:37;;;;;;;6.13;5.63;;;10.80;1.00;;;;;;6130092;23;20206;-90
2023/05/14 00:26:14;;;;;;;6.30;5.80;;;10.70;1.00;;;;;;6125079;23;20194;-90
2023/05/14 00:28:51;;;;;;;6.60;6.07;;;10.80;1.00;;;;;;6125351;23;20183;-90
2023/05/14 00:31:31;;;;;;;6.93;6.43;;;10.90;1.00;;;;;;6125030;23;20168;-90
2023/05/14 00:34:03;;;;;;;6.57;5.97;;;10.70;1.00;;;;;;6125876;23;20182;-90
2023/05/14 00:36:34;;;;;;;5.97;5.47;;;10.70;1.00;;;;;;6125622;23;20254;-90
2023/05/14 00:39:14;;;;;;;6.40;5.90;;;10.70;1.00;;;;;;6123549;23;20195;-90
2023/05/14 00:41:48;;;;;;;6.67;6.07;;;10.60;1.00;;;;;;6125446;23;20210;-90
2023/05/14 00:44:23;;;;;;;6.87;6.27;;;10.60;1.00;;;;;;6125392;23;20156;-90
2023/05/14 00:47:01;;;;;;;6.63;6.13;;;10.50;1.00;;;;;;6125755;23;20527;-90
2023/05/14 00:49:39;;;;;;;6.70;6.20;;;10.50;1.00;;;;;;6125404;23;20219;-89
2023/05/14 00:52:17;;;;;;;7.27;6.63;;;10.60;1.00;;;;;;6127870;23;20560;-90
2023/05/14 00:54:48;;;;;;;7.07;6.47;;;10.50;1.00;;;;;;6125155;23;20503;-89
2023/05/14 00:57:22;;;;;;;6.87;6.27;;;10.20;1.00;;;;;;6125270;23;20510;-90
2023/05/14 01:00:02;;;;;;;6.20;5.70;;;10.40;1.00;;;;;;6125013;23;20198;-89
2023/05/14 01:02:41;;;;;;;6.27;5.77;;;10.40;1.00;;;;;;6151012;23;20168;-90
2023/05/14 01:05:18;;;;;;;6.27;5.77;;;10.50;1.00;;;;;;6124749;23;20191;-88
2023/05/14 01:08:04;;;;;;;6.17;5.67;;;10.50;1.00;;;;;;6121540;23;20805;-90
2023/05/14 01:10:42;;;;;;;6.17;5.67;;;10.50;1.00;;;;;;6149813;23;20167;-90
2023/05/14 01:13:45;;;;;;;6.37;5.87;;;10.60;1.00;;;;;;6124672;23;20159;-91
2023/05/14 01:16:28;;;;;;;6.83;6.23;;;10.40;1.00;;;;;;6123864;23;20659;-91
2023/05/14 01:19:09;;;;;;;6.40;5.90;;;10.50;1.00;;;;;;6100702;23;20631;-90
2023/05/14 01:21:46;;;;;;;6.20;5.70;;;10.40;1.00;;;;;;6124915;23;20572;-90
2023/05/14 01:24:15;;;;;;;6.93;6.33;;;9.80;1.00;;;;;;6124639;23;20165;-89
2023/05/14 01:26:44;;;;;;;6.40;5.80;;;10.50;19.90;;;;;;6124265;23;20663;-90
2023/05/14 01:29:25;;;;;;;6.23;5.63;;;11.30;1.00;;;;;;6124484;23;20246;-90
2023/05/14 01:31:58;;;;;;;6.20;5.60;;;10.30;1.00;;;;;;6124363;23;20222;-89
2023/05/14 01:34:27;;;;;;;6.10;5.60;;;10.20;1.00;;;;;;6124326;23;20182;-90
2023/05/14 01:37:02;;;;;;;5.90;5.40;;;10.50;1.00;;;;;;6124147;23;20755;-90
2023/05/14 01:39:45;;;;;;;5.83;5.30;;;10.80;1.00;;;;;;6123783;23;20198;-90
2023/05/14 01:42:19;;;;;;;5.77;5.13;;;10.00;1.00;;;;;;6124140;23;20209;-91
2023/05/14 01:44:54;;;;;;;5.97;5.47;;;10.10;1.20;;;;;;6124808;23;20247;-91
2023/05/14 01:47:29;;;;;;;6.70;5.70;;;10.10;2.70;;;;;;6123747;23;20190;-90
2023/05/14 01:49:57;;;;;;;6.40;4.90;;;10.00;14.70;;;;;;6121026;23;20183;-90
2023/05/14 01:52:52;;;;;;;6.33;5.73;;;10.60;20.60;;;;;;6148253;23;20221;-89
2023/05/14 01:55:29;;;;;;;5.60;5.10;;;10.00;17.70;;;;;;6106810;23;20163;-88
2023/05/14 01:58:11;;;;;;;;;;;;;;;;;;;;;
2023/05/14 05:59:56;;;;;;;5.38;4.97;;;15.80;1.00;;;;;;6147740;23;20663;-74
2023/05/14 06:02:21;;;;;;;5.15;4.75;;;15.90;1.00;;;;;;6147836;23;20140;-75
2023/05/14 06:04:47;;;;;;;5.47;5.07;;;16.30;1.00;;;;;;6147653;23;20150;-75
2023/05/14 06:07:13;;;;;;;5.80;5.40;;;15.80;1.00;;;;;;6147836;23;20179;-75
2023/05/14 06:09:39;;;;;;;6.20;5.70;;;15.70;1.00;;;;;;6121419;23;20490;-75
2023/05/14 06:12:05;;;;;;;6.10;5.60;;;15.70;1.00;;;;;;6148023;23;20458;-75
2023/05/14 06:14:30;;;;;;;5.90;5.50;;;15.70;1.00;;;;;;6146826;23;20144;-76
2023/05/14 06:16:57;;;;;;;7.28;6.20;;;15.60;1.00;;;;;;6147405;23;20226;-75
2023/05/14 06:19:23;;;;;;;6.65;6.03;;;15.40;1.00;;;;;;6147694;23;20250;-75
2023/05/14 06:21:48;;;;;;;6.28;5.78;;;15.20;1.00;;;;;;6147806;23;20610;-74
2023/05/14 06:24:15;;;;;;;6.65;6.05;;;15.30;1.00;;;;;;6147392;23;20171;-75
2023/05/14 06:26:40;;;;;;;7.25;6.50;;;15.30;1.00;;;;;;6147588;23;20172;-75
2023/05/14 06:29:08;;;;;;;6.28;5.78;;;15.40;1.00;;;;;;6147667;23;20151;-75
2023/05/14 06:31:34;;;;;;;6.68;6.15;;;15.10;1.00;;;;;;6147519;23;20148;-75
2023/05/14 06:34:00;;;;;;;6.75;6.25;;;15.20;1.00;;;;;;6147281;23;20155;-76
2023/05/14 06:36:25;;;;;;;7.10;6.55;;;15.20;1.00;;;;;;6147449;23;20262;-76
2023/05/14 06:38:51;;;;;;;7.80;7.13;;;15.10;1.00;;;;;;6121668;23;20238;-76
2023/05/14 06:41:17;;;;;;;6.95;6.20;;;16.20;1.00;;;;;;6147275;23;20638;-75
2023/05/14 06:43:42;;;;;;;6.40;5.90;;;17.80;1.00;;;;;;6120511;23;20154;-75
2023/05/14 06:46:08;;;;;;;5.72;5.30;;;19.40;1.00;;;;;;6147190;23;20510;-75
2023/05/14 06:48:33;;;;;;;6.05;5.55;;;19.20;1.00;;;;;;6147413;23;20272;-76
2023/05/14 06:50:59;;;;;;;6.82;6.13;;;18.90;1.00;;;;;;6119096;23;20662;-74
2023/05/14 06:53:24;;;;;;;7.13;6.53;;;18.40;1.00;;;;;;6146041;23;20143;-76
2023/05/14 06:55:50;;;;;;;6.88;6.28;;;17.70;1.00;;;;;;6146832;23;20148;-76
2023/05/14 06:58:15;;;;;;;6.78;6.28;;;18.10;1.00;;;;;;6146435;23;20261;-76
2023/05/14 07:00:42;;;;;;;6.65;6.15;;;17.20;1.00;;;;;;6146430;23;20195;-76
2023/05/14 07:03:07;;;;;;;7.65;7.05;;;17.00;1.00;;;;;;6145891;23;20583;-75
2023/05/14 07:05:33;;;;;;;6.75;6.15;;;16.90;1.00;;;;;;6146312;23;20144;-75
2023/05/14 07:07:58;;;;;;;7.13;6.53;;;17.00;1.00;;;;;;6146161;23;20667;-76
2023/05/14 07:10:24;;;;;;;7.15;6.45;;;17.10;1.00;;;;;;6146429;23;20214;-74
2023/05/14 07:12:50;;;;;;;6.80;6.00;;;17.20;1.00;;;;;;6145949;23;20140;-75
2023/05/14 07:15:15;;;;;;;6.45;5.95;;;17.60;1.00;;;;;;6146604;23;20140;-76
2023/05/14 07:17:41;;;;;;;5.68;5.18;;;18.50;1.00;;;;;;6146574;23;20183;-75
2023/05/14 07:20:07;;;;;;;6.10;5.55;;;19.40;1.00;;;;;;6146316;23;20511;-75
2023/05/14 07:22:33;;;;;;;7.13;6.13;;;19.70;1.00;;;;;;6120455;23;20159;-76
2023/05/14 07:24:58;;;;;;;6.60;6.00;;;19.80;1.00;;;;;;6145046;23;20144;-77
2023/05/14 07:27:24;;;;;;;5.72;5.32;;;19.90;1.00;;;;;;6146083;23;20205;-80
2023/05/14 07:29:50;;;;;;;5.82;5.43;;;19.80;1.00;;;;;;6147934;23;20158;-75
2023/05/14 07:32:16;;;;;;;5.60;5.20;;;19.90;1.00;;;;;;6148207;23;20144;-75
2023/05/14 07:34:41;;;;;;;6.13;5.35;;;20.20;1.00;;;;;;6147781;23;20466;-76
2023/05/14 07:37:07;;;;;;;6.20;5.70;;;20.00;1.00;;;;;;6147762;23;20202;-76
2023/05/14 07:39:33;;;;;;;6.45;5.90;;;19.50;1.00;;;;;;6147772;23;20374;-76
2023/05/14 07:41:59;;;;;;;5.45;5.05;;;19.30;1.00;;;;;;6147532;23;20175;-76
2023/05/14 07:44:25;;;;;;;5.68;5.20;;;19.50;1.00;;;;;;6147417;23;20144;-76
2023/05/14 07:46:51;;;;;;;5.30;4.90;;;19.60;1.00;;;;;;6148088;23;20255;-76
2023/05/14 07:49:16;;;;;;;5.43;5.03;;;19.70;1.00;;;;;;6148340;23;20198;-76
2023/05/14 07:51:42;;;;;;;5.20;4.70;;;19.70;1.00;;;;;;6147917;23;20148;-76
2023/05/14 07:54:07;;;;;;;5.10;4.70;;;19.70;1.00;;;;;;6147295;23;20222;-76
2023/05/14 07:56:33;;;;;;;5.68;5.13;;;19.50;1.00;;;;;;6146999;23;20202;-75
2023/05/14 07:58:59;;;;;;;5.32;4.85;;;19.10;1.00;;;;;;6146941;23;20187;-76
2023/05/14 08:01:25;;;;;;;5.60;5.15;;;19.10;1.00;;;;;;6146840;23;20160;-77
2023/05/14 08:03:50;;;;;;;5.53;4.47;;;19.00;1.00;;;;;;6146836;23;20580;-75
2023/05/14 08:06:16;;;;;;;5.25;4.80;;;19.20;1.00;;;;;;6147438;23;20172;-76
2023/05/14 08:08:42;;;;;;;4.85;4.43;;;19.30;1.00;;;;;;6148283;23;20152;-77
2023/05/14 08:11:08;;;;;;;4.55;4.25;;;19.20;1.00;;;;;;6148525;23;20148;-75
2023/05/14 08:13:33;;;;;;;5.00;4.60;;;19.20;1.00;;;;;;6147476;23;20223;-76
2023/05/14 08:15:59;;;;;;;5.07;4.70;;;19.40;1.00;;;;;;6148048;23;20148;-75
2023/05/14 08:18:25;;;;;;;6.85;6.30;;;19.30;1.00;;;;;;6148887;23;20180;-76
2023/05/14 08:20:50;;;;;;;6.53;6.03;;;18.90;1.00;;;;;;6149732;23;20151;-80
2023/05/14 08:23:16;;;;;;;6.13;5.63;;;18.70;1.00;;;;;;6124192;23;20190;-79
2023/05/14 08:25:42;;;;;;;6.30;5.80;;;18.60;1.00;;;;;;6149990;23;20144;-80
2023/05/14 08:28:07;;;;;;;6.28;5.80;;;18.50;1.00;;;;;;6124093;23;20226;-80
2023/05/14 08:30:33;;;;;;;5.90;5.40;;;18.30;1.00;;;;;;6150566;23;20220;-79
2023/05/14 08:32:59;;;;;;;6.10;5.60;;;18.90;1.00;;;;;;6149588;23;20136;-80
2023/05/14 08:35:24;;;;;;;6.57;5.88;;;18.60;1.00;;;;;;6124112;23;20283;-79
2023/05/14 08:37:51;;;;;;;5.90;5.40;;;18.90;1.00;;;;;;6149819;23;20610;-80
2023/05/14 08:40:17;;;;;;;5.45;5.00;;;19.30;1.00;;;;;;6149216;23;20639;-79
2023/05/14 08:42:43;;;;;;;7.00;6.47;;;19.80;1.00;;;;;;6123781;23;20179;-79
2023/05/14 08:45:19;;;;;;;6.57;6.07;;;19.90;1.00;;;;;;6149159;23;20558;-80
2023/05/14 08:47:49;;;;;;;6.93;6.30;;;20.10;1.00;;;;;;6149385;23;20195;-79
2023/05/14 08:50:16;;;;;;;10.10;9.20;;;20.00;1.00;;;;;;6149912;23;20239;-81
2023/05/14 08:52:42;;;;;;;5.88;5.38;;;20.30;1.00;;;;;;6123943;23;20152;-79
2023/05/14 08:55:10;;;;;;;6.85;6.25;;;20.00;1.00;;;;;;6149602;23;20143;-80
2023/05/14 08:57:36;;;;;;;5.70;5.30;;;20.50;1.00;;;;;;6149735;23;20183;-80
2023/05/14 09:00:13;;;;;;;8.48;7.13;;;20.30;1.00;;;;;;6123578;23;20636;-78
2023/05/14 09:02:39;;;;;;;4.82;4.43;;;20.50;1.00;;;;;;6147809;23;20136;-78
2023/05/14 09:05:08;;;;;;;6.78;6.05;;;20.50;1.00;;;;;;6146835;23;20158;-75
2023/05/14 09:07:34;;;;;;;5.53;5.03;;;20.60;1.00;;;;;;6146845;23;20217;-75
2023/05/14 09:10:01;;;;;;;7.63;6.88;;;20.70;1.00;;;;;;6147628;23;20148;-75
2023/05/14 09:12:27;;;;;;;5.35;4.95;;;20.60;1.00;;;;;;6147318;23;20520;-74
2023/05/14 09:14:52;;;;;;;5.57;3.90;;;20.60;1.00;;;;;;6147199;23;20168;-74
2023/05/14 09:17:18;;;;;;;4.40;4.00;;;20.40;1.00;;;;;;6147408;23;20674;-73
2023/05/14 09:19:47;;;;;;;3.92;3.63;;;20.40;1.00;;;;;;6147625;23;20226;-75
2023/05/14 09:22:15;;;;;;;5.55;3.28;;;20.40;1.00;;;;;;6147800;23;20587;-76
2023/05/14 09:24:41;;;;;;;3.58;3.28;;;20.30;1.00;;;;;;6146954;23;20144;-75
2023/05/14 09:27:17;;;;;;;3.40;3.20;;;20.20;1.00;;;;;;6146743;23;20263;-75
2023/05/14 09:29:42;;;;;;;5.95;3.58;;;19.90;1.00;;;;;;6147751;23;20273;-75
2023/05/14 09:32:09;;;;;;;3.80;3.30;;;19.70;1.00;;;;;;6147972;23;20183;-77
2023/05/14 09:34:36;;;;;;;4.55;4.15;;;19.80;1.00;;;;;;6147886;23;20236;-77
2023/05/14 09:37:05;;;;;;;3.75;3.40;;;19.70;1.00;;;;;;6148008;23;20178;-76
2023/05/14 09:39:32;;;;;;;4.25;3.40;;;19.70;1.00;;;;;;6147768;23;20226;-75
2023/05/14 09:41:57;;;;;;;4.40;3.72;;;19.70;1.00;;;;;;6147748;23;20140;-75
2023/05/14 09:44:24;;;;;;;3.85;3.55;;;19.50;1.00;;;;;;6147450;23;20137;-75
2023/05/14 09:46:50;;;;;;;4.78;4.07;;;19.30;1.00;;;;;;6147054;23;20195;-75
2023/05/14 09:49:16;;;;;;;5.35;3.95;;;19.00;1.00;;;;;;6147528;23;20152;-76
2023/05/14 09:51:42;;;;;;;4.32;3.95;;;18.90;1.00;;;;;;6147195;23;20219;-75
2023/05/14 09:54:08;;;;;;;4.80;4.00;;;19.20;1.00;;;;;;6146777;23;20851;-76
2023/05/14 09:56:35;;;;;;;4.18;3.88;;;19.10;1.00;;;;;;6148849;23;20175;-74
2023/05/14 09:59:02;;;;;;;4.78;3.85;;;19.30;1.00;;;;;;6148191;23;20194;-75
2023/05/14 10:01:29;;;;;;;5.25;3.90;;;19.40;1.00;;;;;;6148044;23;20314;-76
2023/05/14 10:03:55;;;;;;;4.65;4.05;;;19.50;1.00;;;;;;6147209;23;20575;-75
2023/05/14 10:06:30;;;;;;;4.35;4.05;;;19.30;1.00;;;;;;6121250;23;20179;-75
2023/05/14 10:09:01;;;;;;;4.82;3.85;;;19.50;1.00;;;;;;6147566;23;20198;-75
2023/05/14 10:11:31;;;;;;;4.25;3.90;;;19.50;1.00;;;;;;6147062;23;20144;-76
2023/05/14 10:14:06;;;;;;;4.65;4.20;;;19.80;1.00;;;;;;6146235;23;20152;-76
2023/05/14 10:16:34;;;;;;;5.03;4.15;;;19.90;1.00;;;;;;6146649;23;20253;-74
2023/05/14 10:19:07;;;;;;;6.38;4.20;;;20.20;1.00;;;;;;6146963;23;20182;-74
2023/05/14 10:21:35;;;;;;;4.55;4.10;;;20.40;1.00;;;;;;6147468;23;20163;-74
2023/05/14 10:24:03;;;;;;;7.13;3.95;;;20.60;1.00;;;;;;6147031;23;20572;-75
2023/05/14 10:26:30;;;;;;;4.88;4.03;;;20.60;1.00;;;;;;6147429;23;20206;-75
2023/05/14 10:28:57;;;;;;;4.40;4.00;;;20.70;1.00;;;;;;6121812;23;20214;-74
2023/05/14 10:31:43;;;;;;;6.78;4.03;;;20.70;1.00;;;;;;6147827;23;20164;-75
2023/05/14 10:34:42;;;;;;;4.30;3.90;;;20.60;1.00;;;;;;6120940;23;20148;-75
2023/05/14 10:37:19;;;;;;;4.55;4.15;;;20.70;1.00;;;;;;6146337;23;20182;-75
2023/05/14 10:40:05;;;;;;;4.43;4.03;;;20.70;1.00;;;;;;6147061;23;20174;-74
2023/05/14 10:42:34;;;;;;;4.97;4.32;;;20.40;1.00;;;;;;6121366;23;20162;-76
2023/05/14 10:45:04;;;;;;;4.40;4.00;;;20.30;1.00;;;;;;6146715;23;20146;-75
2023/05/14 10:47:31;;;;;;;7.82;4.45;;;20.20;1.00;;;;;;6146996;23;20175;-77
2023/05/14 10:49:58;;;;;;;4.80;4.32;;;20.10;1.00;;;;;;6147279;23;20202;-74
2023/05/14 10:52:25;;;;;;;5.25;4.38;;;20.30;1.00;;;;;;6147337;23;20525;-75
2023/05/14 10:54:55;;;;;;;8.43;4.40;;;20.40;1.00;;;;;;6146096;23;20631;-76
2023/05/14 10:57:23;;;;;;;4.60;3.80;;;20.60;1.00;;;;;;6146673;23;20167;-74
2023/05/14 10:59:53;;;;;;;5.13;3.20;;;20.60;1.00;;;;;;6146689;23;20373;-75
2023/05/14 11:02:33;;;;;;;4.03;3.67;;;20.70;1.00;;;;;;6146721;23;20140;-74
2023/05/14 11:05:07;;;;;;;6.75;4.28;;;20.60;1.00;;;;;;6146534;23;20460;-75
2023/05/14 11:07:34;;;;;;;4.53;3.83;;;20.60;1.00;;;;;;6145969;23;20172;-75
2023/05/14 11:10:01;;;;;;;4.63;4.22;;;20.60;1.00;;;;;;6146537;23;20144;-74
2023/05/14 11:12:27;;;;;;;6.63;3.83;;;20.40;1.00;;;;;;6146397;23;20144;-75
2023/05/14 11:14:55;;;;;;;4.38;3.65;;;20.40;1.00;;;;;;6146089;23;20230;-74
2023/05/14 11:17:21;;;;;;;4.25;3.50;;;20.40;1.00;;;;;;6147034;23;20176;-73
2023/05/14 11:19:47;;;;;;;3.75;3.45;;;20.20;1.00;;;;;;6147189;23;20175;-75
2023/05/14 11:22:13;;;;;;;3.92;3.40;;;20.40;1.00;;;;;;6145748;23;20143;-76
2023/05/14 11:24:39;;;;;;;5.00;3.63;;;20.30;1.00;;;;;;6146432;23;20150;-75
2023/05/14 11:27:07;;;;;;;4.20;3.45;;;20.60;1.00;;;;;;6146492;23;20970;-76
2023/05/14 11:29:34;;;;;;;6.45;3.50;;;20.90;1.00;;;;;;6147364;23;20163;-76
2023/05/14 11:32:01;;;;;;;3.58;3.10;;;21.20;1.00;;;;;;6147242;23;20583;-75
2023/05/14 11:34:27;;;;;;;4.22;3.00;;;21.30;1.00;;;;;;6121301;23;20946;-75
2023/05/14 11:39:51;;;;;;;3.67;2.97;;;21.20;1.00;;;;;;6118400;23;20184;-76
2023/05/14 12:03:21;;;;;;;3.83;3.47;;;22.30;1.00;;;;;;6086452;23;20165;-77
2023/05/14 12:10:04;;;;;;;4.22;3.65;;;23.00;1.00;;;;;;5972335;24;20172;-76
2023/05/14 12:12:35;;;;;;;3.88;3.58;;;22.60;1.00;;;;;;5970852;24;20152;-76
2023/05/14 12:15:01;;;;;;;4.45;4.05;;;22.50;1.00;;;;;;5971617;24;20635;-76
2023/05/14 12:17:26;;;;;;;5.45;3.92;;;22.50;1.00;;;;;;6080693;23;20369;-76
2023/05/14 12:19:52;;;;;;;4.32;3.92;;;22.40;1.00;;;;;;6089934;23;20626;-76
2023/05/14 12:22:19;;;;;;;4.28;3.88;;;22.40;1.00;;;;;;6090176;23;20298;-76
2023/05/14 12:24:56;;;;;;;4.03;3.70;;;22.40;1.00;;;;;;6089276;23;21026;-77
2023/05/14 12:27:23;;;;;;;7.93;4.03;;;22.30;1.00;;;;;;6090044;23;20224;-75
2023/05/14 12:29:52;;;;;;;5.97;3.95;;;22.10;1.00;;;;;;6090651;23;20149;-76
2023/05/14 12:32:18;;;;;;;5.72;5.07;;;21.70;1.00;;;;;;6089600;23;20152;-75
2023/05/14 12:34:44;;;;;;;4.50;4.10;;;21.50;1.00;;;;;;6089105;23;20208;-76
2023/05/14 12:37:11;;;;;;;4.22;3.88;;;21.30;1.00;;;;;;6089695;23;20633;-75
2023/05/14 12:39:36;;;;;;;3.70;3.40;;;21.30;1.00;;;;;;6089536;23;20173;-75
2023/05/14 12:42:02;;;;;;;5.25;3.70;;;21.30;1.00;;;;;;6089371;23;20137;-77
2023/05/14 12:44:28;;;;;;;4.50;4.10;;;21.10;1.00;;;;;;6088504;23;20145;-74
2023/05/14 12:46:53;;;;;;;5.60;3.72;;;21.20;1.00;;;;;;6089798;23;20177;-74
2023/05/14 12:49:19;;;;;;;4.78;4.07;;;21.20;1.00;;;;;;6090240;23;20793;-76
2023/05/14 12:51:45;;;;;;;4.15;3.83;;;21.00;1.00;;;;;;6090456;23;20168;-75
2023/05/14 12:54:11;;;;;;;4.00;3.70;;;21.00;1.00;;;;;;6089874;23;20195;-75
2023/05/14 13:05:11;;;;;;;3.50;3.30;;;20.40;1.00;;;;;;6118628;23;20156;-77
2023/05/14 13:07:37;;;;;;;4.65;3.70;;;20.20;1.00;;;;;;6118745;23;20302;-76
2023/05/14 13:10:04;;;;;;;4.15;3.75;;;20.30;1.00;;;;;;6118589;23;20224;-76
2023/05/14 13:12:30;;;;;;;4.38;3.80;;;20.30;1.00;;;;;;6118683;23;20140;-76
2023/05/14 13:14:55;;;;;;;5.82;4.22;;;20.40;1.00;;;;;;6117352;23;20153;-76
2023/05/14 13:17:21;;;;;;;4.13;3.72;;;20.40;1.00;;;;;;6117878;23;20566;-76
2023/05/14 13:19:46;;;;;;;5.22;3.30;;;20.30;1.00;;;;;;6117877;23;20172;-76
2023/05/14 13:22:13;;;;;;;4.03;3.60;;;20.40;1.00;;;;;;6091933;23;20501;-74
2023/05/14 13:24:39;;;;;;;3.97;3.58;;;20.50;1.00;;;;;;6117262;23;20163;-74
2023/05/14 13:27:04;;;;;;;4.35;3.67;;;20.80;1.00;;;;;;6117216;23;20490;-74
2023/05/14 13:29:30;;;;;;;3.83;3.53;;;20.90;1.00;;;;;;6118753;23;20183;-76
2023/05/14 13:31:56;;;;;;;4.43;4.03;;;21.00;1.00;;;;;;6118335;23;20152;-75
2023/05/14 13:34:21;;;;;;;5.43;3.60;;;21.10;1.00;;;;;;6117888;23;20239;-74
2023/05/14 13:36:48;;;;;;;4.60;3.60;;;21.20;1.00;;;;;;6117373;23;20564;-74
2023/05/14 13:39:14;;;;;;;4.03;3.58;;;21.20;1.00;;;;;;6118416;23;20975;-76
2023/05/14 13:41:40;;;;;;;3.90;3.53;;;21.30;1.00;;;;;;6117932;23;20220;-75
2023/05/14 13:44:05;;;;;;;4.90;3.55;;;21.50;1.00;;;;;;6117323;23;20145;-75
2023/05/14 13:46:31;;;;;;;3.85;3.35;;;21.50;1.00;;;;;;6116875;23;20200;-76
2023/05/14 13:48:57;;;;;;;3.63;3.30;;;21.60;1.00;;;;;;6117648;23;20145;-75
2023/05/14 13:51:22;;;;;;;3.95;3.50;;;21.40;1.00;;;;;;6117952;23;20228;-75
2023/05/14 13:53:48;;;;;;;3.97;3.13;;;21.40;1.00;;;;;;6116990;23;20149;-75
2023/05/14 13:56:14;;;;;;;3.88;3.10;;;21.30;1.00;;;;;;6117886;23;20180;-75
2023/05/14 13:58:39;;;;;;;3.55;2.53;;;21.00;1.00;;;;;;6117669;23;21107;-76
2023/05/14 14:01:05;;;;;;;5.15;2.42;;;20.80;1.00;;;;;;6116533;23;20147;-75
2023/05/14 14:03:31;;;;;;;3.83;2.38;;;20.70;1.00;;;;;;6118047;23;20252;-75
2023/05/14 14:08:27;;;;;;;3.33;2.33;;;20.20;1.00;;;;;;6089798;23;20500;-75
2023/05/14 14:20:20;;;;;;;4.15;3.08;;;20.10;1.00;;;;;;6063357;23;20638;-78
2023/05/14 14:23:07;;;;;;;3.10;2.80;;;20.00;1.00;;;;;;6060801;23;20590;-77
2023/05/14 14:25:53;;;;;;;3.50;3.00;;;24.10;1.00;;;;;;6059226;23;20303;-75
2023/05/14 14:28:18;;;;;;;3.20;2.90;;;20.00;1.00;;;;;;6031078;23;20483;-76
2023/05/14 14:31:13;;;;;;;2.92;2.72;;;20.00;1.00;;;;;;6032173;23;20206;-76
2023/05/14 14:34:20;;;;;;;3.03;2.55;;;20.20;1.00;;;;;;6030353;23;20184;-76
2023/05/14 14:37:14;;;;;;;5.30;2.67;;;20.00;1.00;;;;;;6030719;23;20570;-76
2023/05/14 14:39:45;;;;;;;4.18;2.72;;;20.10;1.00;;;;;;6030015;23;20197;-76
2023/05/14 14:42:51;;;;;;;3.55;2.42;;;20.00;1.00;;;;;;6032127;23;20170;-76
2023/05/14 14:45:24;;;;;;;3.40;2.63;;;19.70;1.00;;;;;;6030472;23;20222;-76
2023/05/14 14:48:30;;;;;;;2.90;2.42;;;19.70;1.00;;;;;;6029796;23;20238;-75
2023/05/14 14:50:56;;;;;;;2.80;2.35;;;19.60;1.00;;;;;;6032497;23;20149;-78
2023/05/14 14:53:22;;;;;;;2.67;2.35;;;19.70;1.00;;;;;;6031237;23;20146;-76
2023/05/14 14:55:49;;;;;;;2.50;2.30;;;19.50;1.00;;;;;;6031933;23;20568;-77
2023/05/14 14:58:15;;;;;;;2.17;1.90;;;19.60;1.00;;;;;;6032018;23;20175;-75
2023/05/14 15:01:54;;;;;;;;;;;;;;;;;;;;;
2023/05/14 15:04:22;;;;;;;3.03;2.05;;;20.00;1.00;;;;;;5999880;23;20263;-76
2023/05/14 15:07:05;;;;;;;4.13;2.00;;;20.20;1.00;;;;;;6028411;23;20182;-76
2023/05/14 15:10:19;;;;;;;2.53;2.20;;;20.40;1.00;;;;;;6017469;23;20158;-76
2023/05/14 15:12:56;;;;;;;2.45;2.13;;;20.60;1.00;;;;;;6031424;23;20145;-76
2023/05/14 15:16:08;;;;;;;3.25;2.60;;;21.20;1.00;;;;;;6031128;23;20226;-75
2023/05/14 15:18:46;;;;;;;4.43;3.22;;;20.60;1.00;;;;;;6031779;23;20174;-76
2023/05/14 15:21:56;;;;;;;6.72;2.70;;;21.20;1.00;;;;;;6031880;23;20659;-77
2023/05/14 15:31:05;;;;;;;2.88;2.60;;;21.00;1.00;;;;;;6031127;23;20153;-75
2023/05/14 15:36:52;;;;;;;3.20;2.55;;;21.20;1.00;;;;;;6082912;23;20222;-89
2023/05/14 15:39:18;;;;;;;3.92;3.33;;;22.60;1.00;;;;;;6118244;23;20200;-89
2023/05/14 15:41:44;;;;;;;4.90;3.70;;;21.30;1.00;;;;;;6118407;23;20160;-87
2023/05/14 15:44:09;;;;;;;3.50;2.72;;;21.40;1.00;;;;;;6144138;23;20147;-87
2023/05/14 15:46:36;;;;;;;5.05;4.15;;;20.90;1.00;;;;;;6144677;23;20158;-87
2023/05/14 15:49:02;;;;;;;9.25;7.45;;;20.90;1.00;;;;;;6119721;23;20188;-87
2023/05/14 15:51:28;;;;;;;4.30;3.90;;;20.30;1.00;;;;;;6121238;23;20170;-86
2023/05/14 15:53:53;;;;;;;4.93;3.97;;;20.10;1.00;;;;;;6120903;23;20197;-88
2023/05/14 15:56:20;;;;;;;3.75;3.42;;;20.00;1.00;;;;;;6120689;23;20167;-88
2023/05/14 15:58:45;;;;;;;5.03;3.10;;;19.90;1.00;;;;;;6120679;23;20639;-87
2023/05/14 16:01:11;;;;;;;4.85;4.40;;;20.00;1.00;;;;;;6120086;23;20163;-87
2023/05/14 16:03:36;;;;;;;3.47;2.97;;;20.00;1.00;;;;;;6120181;23;20159;-87
2023/05/14 16:06:02;;;;;;;3.72;3.42;;;20.00;1.00;;;;;;6120160;23;20148;-87
2023/05/14 16:08:28;;;;;;;5.32;3.83;;;20.00;1.00;;;;;;6121413;23;20184;-86
2023/05/14 16:10:54;;;;;;;3.58;3.28;;;20.20;1.00;;;;;;6146878;23;20151;-87
2023/05/14 16:13:19;;;;;;;3.72;3.15;;;20.20;1.00;;;;;;6119545;23;20546;-85
2023/05/14 16:15:46;;;;;;;6.72;3.22;;;20.30;1.00;;;;;;6122890;23;20182;-87
2023/05/14 16:18:11;;;;;;;5.40;2.80;;;23.20;1.00;;;;;;6123242;23;20184;-85
2023/05/14 16:20:37;;;;;;;4.35;2.70;;;20.40;1.00;;;;;;6123278;23;20563;-86
2023/05/14 16:23:02;;;;;;;3.28;2.90;;;20.60;1.00;;;;;;6122738;23;20159;-87
2023/05/14 16:25:29;;;;;;;3.40;3.10;;;20.90;1.00;;;;;;6122933;23;20156;-88
2023/05/14 16:27:55;;;;;;;3.83;3.00;;;20.50;1.00;;;;;;6122791;23;20226;-88
2023/05/14 16:30:20;;;;;;;4.72;3.30;;;20.60;1.00;;;;;;6123620;23;20951;-87
2023/05/14 16:32:48;;;;;;;2.80;2.60;;;;;;;;;;6122761;23;20163;-87
2023/05/14 16:35:14;;;;;;;5.40;3.10;;;20.50;1.00;;;;;;6148127;23;20182;-88
2023/05/14 16:37:39;;;;;;;3.45;3.13;;;20.30;1.00;;;;;;6121162;23;20206;-87
2023/05/14 16:40:08;;;;;;;6.03;3.60;;;20.40;1.00;;;;;;6121894;23;20191;-86
2023/05/14 16:42:33;;;;;;;6.85;4.10;;;20.10;1.00;;;;;;6122352;23;20981;-86
2023/05/14 16:44:59;;;;;;;6.30;4.28;;;20.20;1.00;;;;;;6122703;23;20159;-88
2023/05/14 16:47:24;;;;;;;7.03;5.90;;;21.10;1.00;;;;;;6122156;23;20160;-88
2023/05/14 16:49:50;;;;;;;8.25;5.97;;;19.90;1.00;;;;;;6122783;23;20187;-88
2023/05/14 16:52:15;;;;;;;15.90;10.68;;;19.90;1.00;;;;;;6122503;23;20168;-88
2023/05/14 16:54:41;;;;;;;9.65;6.90;;;19.80;1.00;;;;;;6122487;23;20179;-88
2023/05/14 16:57:06;;;;;;;11.13;6.65;;;19.90;1.00;;;;;;6122316;23;20206;-88
2023/05/14 16:59:32;;;;;;;5.75;4.13;;;20.00;1.00;;;;;;6122179;23;20180;-87
2023/05/14 17:01:57;;;;;;;3.45;3.15;;;19.80;1.00;;;;;;6120412;23;20163;-88
2023/05/14 17:04:25;;;;;;;3.60;3.30;;;19.50;1.00;;;;;;6121227;23;20156;-88
2023/05/14 17:06:51;;;;;;;6.00;3.78;;;20.10;1.00;;;;;;6120290;23;20155;-87
2023/05/14 17:09:16;;;;;;;3.55;2.92;;;20.00;1.00;;;;;;6120527;23;20193;-87
2023/05/14 17:11:42;;;;;;;3.17;2.80;;;19.30;1.00;;;;;;6146787;23;20156;-87
2023/05/14 17:14:07;;;;;;;3.83;3.40;;;19.50;1.00;;;;;;6119845;23;20630;-86
2023/05/14 17:16:33;;;;;;;3.88;3.30;;;19.10;1.00;;;;;;6120650;23;20160;-87
2023/05/14 17:18:58;;;;;;;3.40;3.05;;;19.10;1.00;;;;;;6119996;23;20195;-86
2023/05/14 17:21:24;;;;;;;5.70;2.88;;;19.10;1.00;;;;;;6122332;23;20492;-88
2023/05/14 17:23:50;;;;;;;3.47;3.08;;;;;;;;;;6121922;23;20192;-88
2023/05/14 17:26:16;;;;;;;4.97;3.47;;;18.50;1.00;;;;;;6147911;23;20152;-87
2023/05/14 17:28:41;;;;;;;3.40;3.13;;;18.40;1.00;;;;;;6145160;23;20184;-87
2023/05/14 17:31:07;;;;;;;4.07;3.20;;;18.50;1.00;;;;;;6122221;23;20163;-87
2023/05/14 17:33:32;;;;;;;5.40;3.45;;;18.80;1.00;;;;;;6122203;23;20163;-88
2023/05/14 17:35:59;;;;;;;5.05;3.10;;;18.50;1.00;;;;;;6122346;23;20163;-88
2023/05/14 17:38:24;;;;;;;3.38;3.08;;;18.30;1.00;;;;;;6122220;23;20203;-87
2023/05/14 17:40:50;;;;;;;5.25;2.80;;;17.90;1.00;;;;;;6148164;23;20623;-85
2023/05/14 17:43:15;;;;;;;3.88;3.05;;;17.70;1.00;;;;;;6122314;23;20162;-87
2023/05/14 17:45:41;;;;;;;3.33;3.03;;;18.70;1.00;;;;;;6147912;23;20166;-88
2023/05/14 17:48:07;;;;;;;4.20;3.15;;;17.60;1.00;;;;;;6122491;23;20183;-88
2023/05/14 17:50:33;;;;;;;4.32;3.28;;;;;;;;;;6147970;23;20651;-88
2023/05/14 17:52:58;;;;;;;4.18;3.22;;;17.40;1.00;;;;;;6122154;23;20159;-87
2023/05/14 17:55:24;;;;;;;4.80;3.00;;;18.50;1.00;;;;;;6121740;23;20156;-87
2023/05/14 17:57:50;;;;;;;6.55;3.00;;;17.20;1.00;;;;;;6121706;23;20174;-85
2023/05/14 18:00:15;;;;;;;3.95;2.97;;;17.10;1.00;;;;;;6121543;23;20180;-89
2023/05/14 18:02:41;;;;;;;3.28;2.97;;;17.10;1.00;;;;;;6121386;23;21228;-87
2023/05/14 18:05:07;;;;;;;3.80;3.20;;;17.00;1.00;;;;;;6121351;23;20164;-88
2023/05/14 18:07:33;;;;;;;3.25;2.95;;;17.00;1.00;;;;;;6121664;23;20195;-88
2023/05/14 18:09:59;;;;;;;3.13;2.90;;;16.90;1.00;;;;;;6122083;23;20207;-87
2023/05/14 18:12:25;;;;;;;3.30;3.00;;;17.10;1.00;;;;;;6120892;23;20160;-87
2023/05/14 18:14:51;;;;;;;5.07;3.17;;;16.80;1.00;;;;;;6121456;23;20170;-88